Latest Coastal Weather Observations for King Island Airport

IDV60701

Issued at 9:41 am EST Tuesday 1 September 2015 (issued every 10 minutes, with the page automatically refreshed every 10 minutes)

About coastal observations | Map of coastal stations | Coastal observations for VIC | Marine services | Other Formats
Station Details ID: 098017 Name: KING ISLAND AIRPORT Lat: -39.88 Lon: 143.88 Height: 37.0 m
Data from the previous 72 hours. | See also: Recent months at King Island Airport
Date/Time
EST
Temp

°C
Wind Pressure Rain
since 9am
mm
Weather Cloud Vis
km
Sea
Height
m
Swell
Dir
 
Speed
knots
Gust
knots
hPa Trend Height
m
Period
s
Dir
01/09:30am 8.7 ENE 1 4 1017.3 - 0.0 - Cloudy 10 - - - -
01/09:00am 8.4 ESE 2 5 1017.2 - 0.0 - Cloudy 10 - - - -
01/08:30am 8.2 ESE 4 5 1017.0 - 0.0 - Cloudy 10 - - - -
01/08:00am 8.0 SW 3 6 1016.9 - 0.0 - Cloudy 10 - - - -
01/07:30am 7.8 SSW 3 5 1016.8 - 0.0 - Cloudy 10 - - - -
01/07:00am 7.6 SSW 3 4 1016.6 - 0.0 - Cloudy 10 - - - -
01/06:30am 7.7 SSW 3 5 1016.5 - 0.0 - Cloudy 10 - - - -
01/06:00am 7.9 NNW 6 10 1016.4 - 0.0 - Cloudy 10 - - - -
01/05:30am 7.8 SSW 1 6 1016.5 - 0.0 - Cloudy 10 - - - -
01/05:00am 7.9 CALM 0 0 1016.7 - 0.0 - Cloudy 10 - - - -
01/04:30am 8.0 WSW 5 8 1016.8 - 0.0 - Cloudy 10 - - - -
01/04:00am 8.1 SW 4 7 1016.8 - 0.0 - Cloudy 10 - - - -
01/03:30am 8.2 WSW 7 10 1016.9 - 0.0 - Cloudy 10 - - - -
01/03:00am 8.3 W 6 9 1017.2 - 0.0 - Cloudy 10 - - - -
01/02:30am 8.3 WNW 7 9 1017.6 - 0.0 - Cloudy 10 - - - -
01/02:00am 8.4 WNW 5 7 1018.0 - 0.0 - Cloudy 10 - - - -
01/01:30am 8.3 SW 7 10 1018.1 - 0.0 - Cloudy 10 - - - -
01/01:00am 8.3 WSW 6 9 1018.3 - 0.0 - Cloudy 10 - - - -
01/12:30am 8.3 W 6 9 1018.7 - 0.0 - Cloudy 10 - - - -
01/12:00am 8.2 W 3 5 1018.6 - 0.0 - Cloudy 10 - - - -
 
Date/Time
EST
Temp

°C
Wind Pressure Rain
since 9am
mm
Weather Cloud Vis
km
Sea
Height
m
Swell
Dir
 
Speed
knots
Gust
knots
hPa Trend Height
m
Period
s
Dir
31/11:30pm 8.1 CALM 0 0 1018.9 - 0.0 - Cloudy 10 - - - -
31/11:00pm 8.2 N 5 6 1019.0 - 0.0 - Cloudy 10 - - - -
31/10:30pm 8.4 SSW 5 7 1019.2 - 0.0 - Cloudy 10 - - - -
31/10:00pm 8.0 CALM 0 0 1019.3 - 0.0 - Cloudy 10 - - - -
31/09:30pm 8.2 CALM 0 3 1019.4 - 0.0 - Cloudy 10 - - - -
31/09:00pm 8.1 CALM 0 0 1019.4 - 0.0 - Cloudy 10 - - - -
31/08:30pm 8.1 CALM 0 0 1019.3 - 0.0 - Cloudy 10 - - - -
31/08:00pm 8.5 CALM 0 0 1019.3 - 0.0 - Cloudy 10 - - - -
31/07:30pm 8.5 NW 1 4 1019.2 - 0.0 - Cloudy 10 - - - -
31/07:00pm 8.7 W 3 7 1019.1 - 0.0 - Cloudy 10 - - - -
31/06:30pm 8.9 SSW 7 9 1019.0 - 0.0 - Cloudy 10 - - - -
31/06:00pm 9.0 SW 5 7 1019.0 - 0.0 - Cloudy 10 - - - -
31/05:30pm 9.5 NW 4 7 1019.2 - 0.0 - Cloudy 10 - - - -
31/05:00pm 9.6 W 7 9 1019.4 - 0.0 - Partly cloudy 10 - - - -
31/04:30pm 9.7 W 8 10 1019.5 - 0.0 - Partly cloudy 10 - - - -
31/04:00pm 10.9 W 9 12 1019.4 - 0.0 - - 10 - - - -
31/03:30pm 11.3 W 8 12 1019.5 - 0.0 - Partly cloudy 10 - - - -
31/03:00pm 11.1 W 9 13 1019.6 - 0.0 - Cloudy 10 - - - -
31/02:30pm 11.1 WSW 8 11 1019.7 - 0.0 - Cloudy 10 - - - -
31/02:00pm 11.3 WSW 10 13 1019.8 - 0.0 - Cloudy 10 - - - -
31/01:30pm 11.5 WSW 10 14 1020.0 - 0.0 - Cloudy 10 - - - -
31/01:00pm 11.0 W 11 14 1020.4 - 0.0 - Cloudy 10 - - - -
31/12:30pm 11.2 W 9 13 1020.6 - 0.0 - Cloudy 10 - - - -
31/12:00pm 11.0 W 8 10 1021.0 - 0.0 - Cloudy 10 - - - -
31/11:30am 10.8 W 8 10 1021.4 - 0.0 - Cloudy 10 - - - -
31/11:00am 10.4 W 6 8 1021.4 - 0.0 - Cloudy 10 - - - -
31/10:30am 10.2 WSW 7 9 1021.6 - 0.0 - Cloudy 10 - - - -
31/10:00am 9.8 WSW 6 8 1021.9 - 0.0 - Cloudy 10 - - - -
31/09:30am 10.0 SSW 6 9 1021.8 - 0.0 - Partly cloudy 10 - - - -
31/09:00am 9.7 SSE 4 5 1021.8 - 0.2 - Mostly clear 10 - - - -
31/08:30am 8.0 CALM 0 0 1021.8 - 0.2 - Partly cloudy 10 - - - -
31/08:00am 4.8 CALM 0 0 1021.7 - 0.2 - Partly cloudy 10 - - - -
31/07:30am 3.1 CALM 0 0 1021.5 - 0.2 - Partly cloudy 10 - - - -
31/07:00am 3.0 CALM 0 0 1021.3 - 0.2 - Partly cloudy 10 - - - -
31/06:30am 3.0 CALM 0 0 1021.3 - 0.0 - - 10 - - - -
31/06:00am 2.7 CALM 0 0 1021.2 - 0.0 - - 10 - - - -
31/05:30am 2.7 CALM 0 0 1021.3 - 0.0 - - 10 - - - -
31/05:00am 2.5 CALM 0 0 1021.3 - 0.0 - - 10 - - - -
31/04:30am 2.4 CALM 0 0 1021.2 - 0.0 - - 10 - - - -
31/04:00am 2.4 CALM 0 0 1021.2 - 0.0 - - 10 - - - -
31/03:30am 2.7 CALM 0 0 1021.5 - 0.0 - - 10 - - - -
31/03:00am 2.4 CALM 0 0 1021.7 - 0.0 - - 10 - - - -
31/02:30am 4.0 S 3 4 1022.0 - 0.0 - - 10 - - - -
31/02:00am 3.5 SSE 4 5 1022.1 - 0.0 - - 10 - - - -
31/01:30am 5.2 S 6 7 1022.3 - 0.0 - - 10 - - - -
31/01:00am 5.1 SSE 6 8 1022.6 - 0.0 - - 10 - - - -
31/12:30am 5.1 SSE 5 7 1022.8 - 0.0 - - 10 - - - -
31/12:00am 5.4 S 4 6 1023.1 - 0.0 - - 10 - - - -
 
Date/Time
EST
Temp

°C
Wind Pressure Rain
since 9am
mm
Weather Cloud Vis
km
Sea
Height
m
Swell
Dir
 
Speed
knots
Gust
knots
hPa Trend Height
m
Period
s
Dir
30/11:30pm 5.5 S 5 6 1023.2 - 0.0 - - 10 - - - -
30/11:00pm 6.1 S 5 7 1023.5 - 0.0 - - 10 - - - -
30/10:30pm 5.9 SSE 6 7 1023.8 - 0.0 - Partly cloudy 10 - - - -
30/10:00pm 5.5 SSE 4 5 1024.0 - 0.0 - - 10 - - - -
30/09:30pm 5.6 SE 5 6 1024.0 - 0.0 - - 10 - - - -
30/09:00pm 6.3 SSE 4 5 1024.1 - 0.0 - Partly cloudy 10 - - - -
30/08:30pm 7.3 S 4 5 1024.1 - 0.0 - Partly cloudy 10 - - - -
30/08:00pm 7.6 S 5 7 1023.8 - 0.0 - Cloudy 10 - - - -
30/07:30pm 7.8 SSW 8 10 1023.7 - 0.0 - Partly cloudy 10 - - - -
30/07:00pm 7.8 S 7 10 1023.5 - 0.0 - Partly cloudy 10 - - - -
30/06:30pm 8.4 S 8 14 1023.5 - 0.0 - Partly cloudy 9 - - - -
30/06:00pm 9.3 S 8 13 1023.2 - 0.0 - Cloudy 10 - - - -
30/05:30pm 9.4 S 11 20 1023.1 - 0.0 - Partly cloudy 10 - - - -
30/05:00pm 9.5 S 11 18 1023.2 - 0.0 - Partly cloudy 10 - - - -
30/04:30pm 10.4 SSW 14 19 1023.2 - 0.0 - Partly cloudy 10 - - - -
30/04:00pm 10.6 S 12 17 1023.4 - 0.0 - Partly cloudy 10 - - - -
30/03:30pm 10.6 S 12 19 1023.5 - 0.0 - Partly cloudy 10 - - - -
30/03:00pm 10.5 S 11 16 1023.6 - 0.0 - Cloudy 10 - - - -
30/02:30pm 11.2 SSW 15 21 1023.7 - 0.0 - Cloudy 10 - - - -
30/02:00pm 10.9 SSW 15 20 1023.8 - 0.0 - Cloudy 10 - - - -
30/01:30pm 11.6 SSW 15 19 1024.1 - 0.0 - Cloudy 10 - - - -
30/01:00pm 10.7 SSW 13 19 1024.4 - 0.0 - Cloudy 10 - - - -
30/12:30pm 9.8 S 12 17 1024.8 - 0.0 - Cloudy 10 - - - -
30/12:00pm 9.9 S 12 17 1025.4 - 0.0 - Cloudy 10 - - - -
30/11:30am 9.5 SSW 13 18 1025.6 - 0.0 - Partly cloudy 10 - - - -
30/11:00am 9.1 S 13 19 1025.9 - 0.0 - Partly cloudy 10 - - - -
30/10:30am 10.4 S 11 15 1025.9 - 0.0 - Partly cloudy 10 - - - -
30/10:00am 9.5 S 10 16 1026.1 - 0.0 - Cloudy 10 - - - -
30/09:30am 10.0 SSE 12 18 1026.2 - 0.0 - Cloudy 10 - - - -
30/09:00am 10.3 S 10 18 1026.3 - 0.2 - Cloudy 10 - - - -
30/08:30am 9.9 S 11 17 1026.2 - 0.2 - Partly cloudy 10 - - - -
30/08:00am 9.1 S 10 16 1026.2 - 0.2 - Partly cloudy 10 - - - -
30/07:30am 8.3 S 9 14 1026.0 - 0.2 - Cloudy 10 - - - -
30/07:00am 8.1 S 9 15 1025.7 - 0.2 - Partly cloudy 10 - - - -
30/06:30am 8.0 S 10 16 1025.7 - 0.2 - Partly cloudy 10 - - - -
30/06:00am 8.4 S 8 12 1025.4 - 0.2 - Cloudy 10 - - - -
30/05:30am 8.5 S 8 11 1025.3 - 0.2 - Cloudy 10 - - - -
30/05:00am 8.4 SSE 7 12 1025.1 - 0.2 - Partly cloudy 10 - - - -
30/04:30am 8.5 S 8 14 1025.0 - 0.2 - Cloudy 10 - - - -
30/04:00am 8.7 S 8 14 1024.9 - 0.2 - Cloudy 10 - - - -
30/03:30am 8.6 S 9 14 1024.9 - 0.2 - Cloudy 10 - - - -
30/03:00am 8.4 S 10 17 1025.1 - 0.2 - Mostly cloudy 10 - - - -
30/02:30am 8.7 S 11 19 1025.4 - 0.2 - Cloudy 10 - - - -
30/02:00am 8.9 S 11 17 1025.6 - 0.2 - Cloudy 10 - - - -
30/01:30am 8.5 S 13 19 1025.8 - 0.2 - Partly cloudy 10 - - - -
30/01:00am 8.4 S 11 16 1025.7 - 0.2 - Partly cloudy 10 - - - -
30/12:30am 8.8 S 13 19 1025.9 - 0.2 - Cloudy 10 - - - -
30/12:00am 8.8 S 12 20 1026.1 - 0.2 - Mostly cloudy 10 - - - -
 
Date/Time
EST
Temp

°C
Wind Pressure Rain
since 9am
mm
Weather Cloud Vis
km
Sea
Height
m
Swell
Dir
 
Speed
knots
Gust
knots
hPa Trend Height
m
Period
s
Dir
29/11:30pm 9.2 S 11 18 1026.4 - 0.2 - Cloudy 10 - - - -
29/11:00pm 9.1 S 11 17 1026.5 - 0.2 - Cloudy 10 - - - -
29/10:30pm 9.3 S 12 19 1026.7 - 0.2 - Cloudy 10 - - - -
29/10:00pm 9.2 S 13 21 1026.7 - 0.2 - Cloudy 10 - - - -
29/09:38pm 9.5 S 15 25 1026.7 - 0.2 - Cloudy 10 - - - -
29/09:30pm 9.5 S 14 21 1026.7 - 0.2 - Cloudy 10 - - - -
29/09:00pm 9.3 S 16 25 1026.7 - 0.2 - Cloudy 10 - - - -
29/08:30pm 9.5 S 15 26 1026.4 - 0.2 - Cloudy 10 - - - -
29/08:24pm 9.4 S 15 26 1026.4 - 0.2 - Cloudy 10 - - - -
29/08:00pm 9.6 S 15 21 1026.4 - 0.2 - Cloudy 10 - - - -
29/07:31pm 9.6 SSW 15 26 1026.4 - 0.2 - Cloudy 10 - - - -
29/07:30pm 9.6 SSW 15 23 1026.4 - 0.2 - Cloudy 10 - - - -
29/07:00pm 9.5 S 17 27 1026.4 - 0.2 - Cloudy 10 - - - -
29/06:53pm 9.5 S 16 27 1026.4 - 0.2 - Partly cloudy 10 - - - -
29/06:30pm 9.6 S 11 19 1026.4 - 0.2 - Partly cloudy 10 - - - -
29/06:00pm 9.3 S 13 21 1026.1 - 0.2 Showers Cloudy 10 - - - -
29/05:30pm 9.3 SSW 15 22 1026.0 - 0.2 - Partly cloudy 10 - - - -
29/05:04pm 9.3 SSW 15 28 1025.9 - 0.2 - Partly cloudy 10 - - - -
29/05:00pm 9.2 SSW 15 22 1025.9 - 0.2 - Partly cloudy 9 - - - -
29/04:30pm 10.0 SSW 15 21 1025.8 - 0.2 - Partly cloudy 10 - - - -
29/04:00pm 9.8 SSW 17 28 1025.7 - 0.2 - Partly cloudy 10 - - - -
29/03:30pm 10.8 SSW 20 30 1025.7 - 0.2 - Partly cloudy 10 - - - -
29/03:22pm 11.4 SSW 18 28 1025.7 - 0.2 - Partly cloudy 10 - - - -
29/03:00pm 11.4 SSW 21 28 1025.7 - 0.2 Drizzle Partly cloudy 10 - - - -
29/02:30pm 10.3 SSW 20 32 1025.5 - 0.2 - Partly cloudy 10 - - - -
29/02:25pm 11.2 SSW 20 32 1025.4 - 0.2 - Partly cloudy 10 - - - -
29/02:00pm 11.5 SSW 18 23 1025.7 - 0.2 - Partly cloudy 10 - - - -
29/01:36pm 11.5 SSW 20 30 1025.8 - 0.2 - Partly cloudy 10 - - - -
29/01:30pm 11.1 SSW 20 27 1025.9 - 0.2 - Partly cloudy 10 - - - -
29/01:06pm 10.8 SSW 17 27 1026.0 - 0.2 - Partly cloudy 10 - - - -
29/01:00pm 11.0 S 15 24 1026.1 - 0.2 - Partly cloudy 10 - - - -
29/12:31pm 11.1 SSW 20 31 1026.4 - 0.2 - Partly cloudy 10 - - - -
29/12:30pm 10.7 SSW 20 28 1026.4 - 0.2 - Partly cloudy 10 - - - -
29/12:05pm 11.3 S 18 28 1026.7 - 0.2 - Partly cloudy 10 - - - -
29/12:00pm 11.0 SSW 19 28 1026.7 - 0.2 Recent precip. Cloudy 10 - - - -
29/11:30am 10.6 SSW 19 27 1026.9 - 0.2 - Partly cloudy 10 - - - -
29/11:02am 10.6 SSW 21 31 1026.9 - 0.0 - Partly cloudy 10 - - - -
29/11:00am 10.7 SSW 19 26 1026.9 - 0.0 - Partly cloudy 10 - - - -
29/10:36am 9.9 SSW 21 31 1026.9 - 0.0 - Partly cloudy 10 - - - -
29/10:30am 9.6 SSW 20 28 1026.9 - 0.0 - Partly cloudy 10 - - - -
29/10:10am 9.4 SSW 19 29 1026.8 - 0.0 - Partly cloudy 8 - - - -
29/10:00am 9.7 SSW 21 28 1026.7 - 0.0 - Partly cloudy 10 - - - -

Other Formats:

Comma delimited format used in spreadsheet applications
http://www.bom.gov.au/fwo/IDV60701/IDV60701.94850.axf

JavaScript Object Notation format (JSON) in row-major order
http://www.bom.gov.au/fwo/IDV60701/IDV60701.94850.json